createdAt,value
2022-12-01T00:01:15.224Z,44.97
2022-12-01T00:06:36.874Z,45.05
2022-12-01T00:11:58.529Z,44.73
2022-12-01T00:17:21.553Z,44.53
2022-12-01T00:22:48.114Z,44.76
2022-12-01T00:28:09.805Z,44.32
2022-12-01T00:33:31.620Z,44.26
2022-12-01T00:38:55.305Z,44.01
2022-12-01T00:44:16.934Z,44.30
2022-12-01T00:49:38.687Z,43.93
2022-12-01T00:55:00.338Z,44.01
2022-12-01T01:00:22.028Z,43.98
2022-12-01T01:05:44.197Z,43.88
2022-12-01T01:11:06.967Z,43.55
2022-12-01T01:16:28.924Z,43.61
2022-12-01T01:21:50.733Z,43.19
2022-12-01T01:27:12.374Z,43.27
2022-12-01T01:32:34.233Z,43.13
2022-12-01T01:37:58.550Z,42.83
2022-12-01T01:43:44.728Z,43.02
2022-12-01T01:49:11.726Z,42.91
2022-12-01T01:54:37.385Z,42.98
2022-12-01T02:00:04.681Z,42.79
2022-12-01T02:05:30.654Z,42.42
2022-12-01T02:11:17.734Z,42.37
2022-12-01T02:16:58.181Z,42.41
2022-12-01T02:22:35.798Z,42.22
2022-12-01T02:28:29.484Z,42.49
2022-12-01T02:34:11.685Z,42.09
2022-12-01T02:39:46.303Z,42.27
2022-12-01T02:45:14.143Z,42.24
2022-12-01T02:50:39.240Z,41.96
2022-12-01T02:56:01.072Z,41.95
2022-12-01T03:01:46.488Z,42.06
2022-12-01T03:07:20.373Z,42.12
2022-12-01T03:12:59.345Z,41.91
2022-12-01T03:18:29.891Z,41.83
2022-12-01T03:24:13.879Z,41.51
2022-12-01T03:29:45.163Z,41.84
2022-12-01T03:35:14.642Z,41.55
2022-12-01T03:40:39.483Z,41.88
2022-12-01T03:46:25.407Z,41.43
2022-12-01T03:51:59.055Z,41.68
2022-12-01T03:57:30.160Z,41.68
2022-12-01T04:02:57.060Z,41.74
2022-12-01T04:08:19.085Z,41.92
2022-12-01T04:13:40.724Z,41.49
2022-12-01T04:19:02.406Z,41.49
2022-12-01T04:24:24.105Z,41.43
2022-12-01T04:29:46.063Z,41.49
2022-12-01T04:35:10.748Z,41.40
2022-12-01T04:40:32.404Z,41.82
2022-12-01T04:45:54.079Z,41.51
2022-12-01T04:51:15.991Z,41.43
2022-12-01T04:56:37.731Z,41.54
2022-12-01T05:01:59.500Z,41.82
2022-12-01T05:07:21.254Z,41.84
2022-12-01T05:12:42.973Z,41.53
2022-12-01T05:18:04.703Z,41.98
2022-12-01T05:23:28.279Z,41.42
2022-12-01T05:28:50.006Z,41.82
2022-12-01T05:34:11.689Z,41.47
2022-12-01T05:39:33.350Z,41.66
2022-12-01T05:44:55.012Z,41.58
2022-12-01T05:50:16.679Z,41.69
2022-12-01T05:55:38.959Z,41.70
2022-12-01T06:01:01.040Z,41.79
2022-12-01T06:06:22.696Z,41.90
2022-12-01T06:11:44.370Z,41.93
2022-12-01T06:17:06.057Z,41.48
2022-12-01T06:22:27.740Z,41.94
2022-12-01T06:27:49.413Z,41.57
2022-12-01T06:33:11.821Z,41.90
2022-12-01T06:38:35.503Z,41.84
2022-12-01T06:43:57.165Z,41.47
2022-12-01T06:49:19.931Z,41.64
2022-12-01T06:54:41.589Z,41.22
2022-12-01T07:00:04.781Z,41.59
2022-12-01T07:05:26.772Z,41.35
2022-12-01T07:10:57.297Z,41.63
2022-12-01T07:16:19.165Z,41.69
2022-12-01T07:21:40.888Z,41.24
2022-12-01T07:27:02.535Z,41.42
2022-12-01T07:32:24.249Z,41.61
2022-12-01T07:37:46.362Z,41.62
2022-12-01T07:43:08.016Z,41.50
2022-12-01T07:48:30.395Z,41.37
2022-12-01T07:53:53.528Z,41.47
2022-12-01T07:59:15.181Z,41.50
2022-12-01T08:04:37.260Z,41.04
2022-12-01T08:09:59.030Z,41.25
2022-12-01T08:15:20.681Z,41.50
2022-12-01T08:20:42.420Z,41.45
2022-12-01T08:26:06.761Z,41.45
2022-12-01T08:31:35.893Z,41.03
2022-12-01T08:36:57.844Z,41.04
2022-12-01T08:42:19.575Z,41.23
2022-12-01T08:47:41.261Z,41.47
2022-12-01T08:53:02.925Z,41.14
2022-12-01T08:58:24.930Z,40.93
2022-12-01T09:03:47.400Z,41.40
2022-12-01T09:09:11.138Z,41.16
2022-12-01T09:14:37.987Z,41.35
2022-12-01T09:19:59.663Z,41.43
2022-12-01T09:25:21.341Z,41.34
2022-12-01T09:30:43.188Z,41.21
2022-12-01T09:36:07.304Z,41.29
2022-12-01T09:42:05.005Z,41.08
2022-12-01T09:47:34.305Z,41.41
2022-12-01T09:53:03.887Z,41.13
2022-12-01T09:58:30.937Z,40.90
2022-12-01T10:03:57.964Z,41.25
2022-12-01T10:09:19.570Z,41.40
2022-12-01T10:14:43.493Z,40.98
2022-12-01T10:20:21.799Z,40.92
2022-12-01T10:25:52.369Z,40.98
2022-12-01T10:31:26.666Z,41.39
2022-12-01T10:36:48.862Z,41.38
2022-12-01T10:42:24.397Z,41.11
2022-12-01T10:48:18.216Z,40.91
2022-12-01T10:53:39.958Z,41.30
2022-12-01T10:59:21.908Z,41.24
2022-12-01T11:04:46.215Z,40.92
2022-12-01T11:10:16.340Z,41.03
2022-12-01T11:15:40.994Z,41.15
2022-12-01T11:21:13.136Z,41.22
2022-12-01T11:26:34.976Z,40.93
2022-12-01T11:31:59.079Z,40.75
2022-12-01T11:37:24.624Z,40.79
2022-12-01T11:42:56.552Z,40.64
2022-12-01T11:48:21.257Z,40.87
2022-12-01T11:53:44.268Z,40.49
2022-12-01T11:59:12.455Z,40.46
2022-12-01T12:05:01.879Z,40.54
2022-12-01T12:10:44.158Z,40.34
2022-12-01T12:16:17.800Z,40.56
2022-12-01T12:22:10.476Z,40.25
2022-12-01T12:27:59.190Z,40.33
2022-12-01T12:33:29.943Z,40.37
2022-12-01T12:39:00.601Z,40.04
2022-12-01T12:44:36.811Z,40.22
2022-12-01T12:50:17.535Z,39.71
2022-12-01T12:55:45.440Z,40.14
2022-12-01T13:01:16.125Z,39.98
2022-12-01T13:06:43.667Z,39.88
2022-12-01T13:12:10.022Z,40.07
2022-12-01T13:17:44.683Z,39.97
2022-12-01T13:23:10.116Z,39.93
2022-12-01T13:28:53.890Z,39.65
2022-12-01T13:34:27.584Z,40.00
2022-12-01T13:39:54.594Z,39.89
2022-12-01T13:45:19.958Z,39.64
2022-12-01T13:50:44.160Z,40.03
2022-12-01T13:56:25.419Z,39.87
2022-12-01T14:01:47.917Z,39.96
2022-12-01T14:07:35.132Z,39.81
2022-12-01T14:13:02.526Z,39.94
2022-12-01T14:18:36.867Z,39.63
2022-12-01T14:24:01.828Z,39.57
2022-12-01T14:29:26.944Z,39.52
2022-12-01T14:34:52.238Z,39.48
2022-12-01T14:40:19.063Z,39.62
2022-12-01T14:45:55.043Z,39.27
2022-12-01T14:51:28.511Z,39.40
2022-12-01T14:56:54.178Z,39.50
2022-12-01T15:02:15.878Z,39.43
2022-12-01T15:07:39.730Z,39.51
2022-12-01T15:13:21.798Z,39.60
2022-12-01T15:18:44.151Z,39.67
2022-12-01T15:24:19.677Z,39.71
2022-12-01T15:29:45.710Z,39.67
2022-12-01T15:35:17.023Z,39.87
2022-12-01T15:41:27.395Z,39.74
2022-12-01T15:46:28.284Z,40.03
2022-12-01T15:51:50.840Z,40.05
2022-12-01T15:57:17.577Z,39.95
2022-12-01T16:02:39.918Z,39.79
2022-12-01T16:08:19.991Z,39.63
2022-12-01T16:13:47.344Z,39.81
2022-12-01T16:19:08.986Z,39.76
2022-12-01T16:24:51.775Z,39.64
2022-12-01T16:30:23.067Z,39.81
2022-12-01T16:35:45.222Z,39.63
2022-12-01T16:41:17.773Z,39.49
2022-12-01T16:46:40.400Z,39.71
2022-12-01T16:52:16.015Z,39.27
2022-12-01T16:57:43.863Z,39.18
2022-12-01T17:03:06.396Z,38.84
2022-12-01T17:08:28.606Z,38.84
2022-12-01T17:13:50.341Z,38.65
2022-12-01T17:19:12.207Z,38.26
2022-12-01T17:24:33.912Z,38.01
2022-12-01T17:29:55.749Z,37.77
2022-12-01T17:35:17.649Z,38.39
2022-12-01T17:40:39.400Z,38.45
2022-12-01T17:46:02.122Z,38.27
2022-12-01T17:51:24.205Z,38.14
2022-12-01T17:56:45.926Z,38.30
2022-12-01T18:02:09.997Z,38.20
2022-12-01T18:07:31.787Z,37.96
2022-12-01T18:12:53.470Z,37.26
2022-12-01T18:18:15.205Z,37.51
2022-12-01T18:23:37.197Z,37.07
2022-12-01T18:29:07.118Z,37.00
2022-12-01T18:34:32.281Z,37.46
2022-12-01T18:39:56.527Z,37.58
2022-12-01T18:45:21.214Z,38.00
2022-12-01T18:50:43.035Z,38.27
2022-12-01T18:56:07.465Z,38.19
2022-12-01T19:01:42.429Z,38.33
2022-12-01T19:07:05.700Z,38.49
2022-12-01T19:12:27.526Z,38.87
2022-12-01T19:17:49.292Z,38.70
2022-12-01T19:23:11.010Z,38.39
2022-12-01T19:28:34.093Z,38.39
2022-12-01T19:33:56.131Z,38.12
2022-12-01T19:39:17.884Z,37.90
2022-12-01T19:44:39.569Z,37.72
2022-12-01T19:50:01.378Z,37.33
2022-12-01T19:55:23.016Z,37.32
2022-12-01T20:00:44.934Z,37.17
2022-12-01T20:06:30.587Z,36.74
2022-12-01T20:11:53.851Z,37.23
2022-12-01T20:17:16.164Z,37.25
2022-12-01T20:22:38.269Z,37.30
2022-12-01T20:28:00.077Z,36.89
2022-12-01T20:33:22.053Z,37.33
2022-12-01T20:38:44.207Z,37.31
2022-12-01T20:44:07.638Z,37.52
2022-12-01T20:49:29.823Z,37.70
2022-12-01T20:54:51.707Z,37.85
2022-12-01T21:00:14.344Z,37.84
2022-12-01T21:05:39.459Z,37.83
2022-12-01T21:11:06.165Z,37.50
2022-12-01T21:16:34.111Z,37.88
2022-12-01T21:21:56.248Z,37.85
2022-12-01T21:27:18.517Z,38.18
2022-12-01T21:32:44.034Z,38.46
2022-12-01T21:38:11.112Z,37.90
2022-12-01T21:43:38.091Z,38.46
2022-12-01T21:49:01.469Z,38.64
2022-12-01T21:54:23.392Z,38.41
2022-12-01T21:59:45.109Z,38.70
2022-12-01T22:05:25.819Z,38.76
2022-12-01T22:11:02.474Z,38.66
2022-12-01T22:16:40.798Z,38.76
2022-12-01T22:22:03.742Z,38.99
2022-12-01T22:27:28.670Z,38.96
2022-12-01T22:33:00.459Z,38.81
2022-12-01T22:38:34.118Z,38.79
2022-12-01T22:43:57.763Z,39.19
2022-12-01T22:49:23.165Z,38.74
2022-12-01T22:54:49.323Z,38.96
2022-12-01T23:00:16.956Z,38.87
2022-12-01T23:05:38.851Z,39.08
2022-12-01T23:11:00.600Z,39.19
2022-12-01T23:16:22.397Z,39.19
2022-12-01T23:21:44.384Z,39.44
2022-12-01T23:27:07.073Z,39.16
2022-12-01T23:32:28.736Z,39.35
2022-12-01T23:37:50.630Z,39.35
2022-12-01T23:43:19.123Z,38.98
2022-12-01T23:48:47.177Z,38.93
2022-12-01T23:54:20.794Z,39.02
2022-12-01T23:59:43.706Z,39.54
